This is the latest recevied weather packets stored in our database for station/object KB2UHF-8. If no packets are shown the sender has not sent any weather packets the latest 10 day(s).
| Time | Temp. | Humidity | Pressure | Rain* | Wind** | Luminosity | Snow |
|---|---|---|---|---|---|---|---|
| 1777343716 | 13.89° C | 87% | 1000.9 hPa | 0 mm | - | 0 W/m² | - |
| 1777339536 | 16.11° C | 89% | 999.1 hPa | 0.25 mm | - | 0 W/m² | - |
| 1777336518 | 15.56° C | 92% | 998.3 hPa | 7.37 mm | - | 34 W/m² | - |
| 1777328716 | 17.78° C | 84% | 998.6 hPa | 0 mm | - | 264 W/m² | - |
| 1777327516 | 17.78° C | 83% | 998.9 hPa | 0 mm | - | 128 W/m² | - |
| 1777325136 | 17.78° C | 83% | 999.3 hPa | 0 mm | - | 115 W/m² | - |
| 1777324536 | 17.78° C | 83% | 999.2 hPa | 0 mm | - | 118 W/m² | - |
| 1777323936 | 17.78° C | 83% | 999.2 hPa | 0 mm | - | 267 W/m² | - |
| 1777323336 | 17.78° C | 84% | 999.3 hPa | 0 mm | - | 366 W/m² | - |
| 1777322116 | 17.22° C | 85% | 999.7 hPa | 0 mm | - | 182 W/m² | - |
| 1777320916 | 16.67° C | 87% | 999.8 hPa | 0 mm | - | 237 W/m² | - |
| 1777317936 | 13.89° C | 93% | 1000.6 hPa | 0 mm | - | 148 W/m² | - |
| 1777316716 | 13.89° C | 92% | 1000.8 hPa | 0 mm | - | 70 W/m² | - |
| 1777311316 | 13.33° C | 92% | 1001.9 hPa | 0.25 mm | - | 58 W/m² | - |
| 1777309516 | 13.33° C | 92% | 998 hPa | 1.78 mm | - | 238 W/m² | - |
| 1777304715 | 12.78° C | 90% | 1004 hPa | 1.02 mm | - | 54 W/m² | - |
| 1777301137 | 13.89° C | 82% | 1005.4 hPa | 0 mm | - | 99 W/m² | - |
| 1777298716 | 13.33° C | 82% | 1006.1 hPa | 0 mm | - | 131 W/m² | - |
| 1777296315 | 12.78° C | 83% | 1006.2 hPa | 0 mm | - | 148 W/m² | - |
| 1777291537 | 11.67° C | 86% | 1007.2 hPa | 0.25 mm | - | 29 W/m² | - |
| 1777287317 | 11.67° C | 87% | 1008.7 hPa | 0 mm | - | 0 W/m² | - |
| 1777284917 | 11.67° C | 87% | 1009 hPa | 0 mm | - | 0 W/m² | - |
| 1777283117 | 11.67° C | 85% | 1009.6 hPa | 0 mm | - | 0 W/m² | - |
| 1777281917 | 12.22° C | 82% | 1009.9 hPa | 0 mm | - | 0 W/m² | - |
| 1777277717 | 12.22° C | 79% | 1010.2 hPa | 0 mm | - | 0 W/m² | - |
* Rain latest hour (hover to see other rain measurements)
** Current wind speed in m/s (hover to see current wind gust speed)